Main page
METAR-TAF:

METAR-TAF

Airports :

North Texas Regional Airport

Sherman / Denison, Texas, United States

latitude: 33-43N, longitude: 096-40W, elevation: 748 ft

Current weather observation

The report was made 28 minutes ago, at 06:55 UTC
Wind 6 mph from the South/Southeast
Temperature 77°F
Humidity 69%
Pressure 29.97 in. Hg
Visibility: 10 miles
Clear sky

METAR: KGYI 150655Z AUTO 15005KT 10SM CLR 25/19 A2997 RMK AO2 T02450190 TSNO

Time: 02:23 (07:23 UTC)


TAF: missing

Weather observations and forecasts of more than 4000 airports (METAR and TAF reports).

The available stations are represented by yellow and red dots on the map.

Hover mouse over dot to see the name of the station.

Then click to see weather observations and forecasts.

To change the map : click on the green buttons with a black cross to zoom in, on the green button with a dash to zoom out, or on the green arrows for adjacent maps.


METAR-TAF: